Datos de la estación

Estación Meteorológica de Padul

Provincia: Granada
Código de Estación: 10
Primer día registrado: 26-01-2001
Último día registrado: 25-07-2021

Datos Localización

Latitud: 37º 01' 07'' N
Longitud: 03º 36' 01'' W
Altitud: 747

Coordenadas UTM

X: 446599
Y: 4097120

Fecha de Medida
25-07-2021
Día Juliano
206
Temp. Máxima (ºC)
34.1
Velocidad Viento Media (m/s)
1.3
Hora Temp. Máxima
14:16
Dirección Viento Media (º)
293.5
Temp. Mínima (ºC)
18.4
Radiación (MJ/m2 d)
28.0
Hora Temp. Mínima
6:14
Precipitación (mm)
0.0
Temp. Media (ºC)
26.2
ETo (mm/dia)
6.5
Humedad Relativa Máxima (%)
55.6
Humedad Relativa Mínima (%)
11.4
Precipitación Acumulada (mm)
446.2
Humedad Relativa Media (%)
27.7
ETo Acumulada (mm)
958.6
Temperatura Máxima Humedad Máxima Dirección del Viento
Temperatura Mínima Humedad Mínima Precipitación
Temperatura Media Humedad Media ETo
HH:MM Temperatura Máxima Radiación Marcar Todas
HH:MM Temperatura Mínima Velocidad del Viento
 
Fecha Día Juliano Temp. Máxima (ºC) Hora Temp Máxima Temp. Mínima (ºC) Hora Temp Mínima Temp. Media (ºC) Humedad Relativa Máxima (%) Humedad Relativa Media (%) Humedad Relativa Mínima (%) Velocidad Viento Media (m/s) Dirección Viento Media (º) Radiación (MJ/m2 d) Precipitación (mm) ETo (mm/dia)
25-07-2021 206 34.1 14:16 18.4 6:14 26.2 55.6 27.7 11.4 1.3 293.5 28.0 0.0 6.5
24-07-2021 205 38.3 14:26 19.9 5:26 29.0 71.7 27.9 8.0 1.0 284.7 26.0 0.0 6.3
23-07-2021 204 37.8 15:56 21.4 4:12 30.0 61.8 26.8 14.3 0.9 104.2 20.9 0.0 5.4
22-07-2021 203 36.0 12:36 15.5 5:54 27.0 87.9 39.2 15.5 0.8 126.7 27.3 0.0 5.9
21-07-2021 202 34.1 13:08 14.1 5:22 25.1 77.1 39.5 18.3 0.8 140.2 28.5 0.0 5.8
20-07-2021 201 32.7 13:28 15.1 5:28 24.9 84.7 40.9 15.0 0.8 132.6 28.8 0.0 5.8
19-07-2021 200 35.7 10:58 19.2 --:-- 27.0 80.1 38.7 16.9 0.8 131.1 27.4 0.0 6.0
18-07-2021 199 36.9 14:42 21.0 5:12 29.5 49.6 27.6 11.3 1.3 297.5 29.0 0.0 7.0
17-07-2021 198 35.7 13:48 16.5 3:12 26.3 91.6 41.8 18.4 0.8 131.2 27.7 0.0 6.0
16-07-2021 197 32.1 14:14 15.3 4:34 23.9 97.7 54.5 23.2 0.8 118.2 28.7 0.0 5.7
15-07-2021 196 29.3 11:04 15.6 5:30 22.4 90.0 58.9 26.5 0.8 124.7 28.7 0.0 5.5
14-07-2021 195 28.3 15:10 15.2 6:04 22.0 97.7 62.2 34.9 0.9 117.3 28.4 0.0 5.4
13-07-2021 194 30.5 13:00 15.9 5:48 22.1 94.5 47.1 13.8 1.0 221.4 29.5 0.0 5.9
12-07-2021 193 35.2 15:10 21.2 23:58 28.9 52.0 25.0 10.9 1.2 316.3 27.7 0.0 6.5
11-07-2021 192 40.6 15:26 16.8 4:00 30.8 82.4 30.7 9.0 0.9 84.3 22.1 0.0 5.8
10-07-2021 191 34.7 15:44 17.7 00:30 25.4 83.1 50.2 25.2 0.9 122.7 26.4 0.0 5.9
09-07-2021 190 30.8 14:44 17.6 5:30 23.4 95.2 62.9 36.7 0.7 161.6 27.1 0.0 5.4
08-07-2021 189 29.7 12:04 14.1 5:18 22.7 85.2 47.4 21.2 1.0 120.6 29.4 0.0 5.8
07-07-2021 188 31.9 15:10 17.8 23:52 24.1 72.3 41.5 8.6 1.5 278.1 23.8 0.0 6.1
06-07-2021 187 34.8 14:04 18.5 5:40 26.8 60.1 32.8 9.6 1.3 289.7 30.0 0.0 6.9
05-07-2021 186 36.7 12:52 18.0 5:26 28.3 44.7 27.1 12.0 0.8 175.9 29.4 0.0 6.2
04-07-2021 185 36.0 15:38 17.6 5:20 27.2 52.9 29.9 16.2 1.2 305.6 30.1 0.0 6.9
03-07-2021 184 37.0 14:48 17.1 5:46 27.3 49.1 23.2 9.1 1.0 281.7 31.0 0.0 6.8
02-07-2021 183 34.9 14:04 18.2 3:36 26.3 64.1 37.9 18.5 0.6 142.0 30.2 0.0 6.0
01-07-2021 182 31.9 15:18 14.5 4:54 23.1 97.3 60.9 26.7 0.7 149.8 29.5 0.0 5.7
30-06-2021 181 30.7 14:58 11.8 4:26 21.9 93.6 50.5 24.5 0.7 142.3 30.3 0.0 5.7
29-06-2021 180 31.2 13:34 15.2 4:44 23.3 59.4 30.7 12.8 0.7 154.7 30.4 0.0 5.7
28-06-2021 179 31.7 14:22 16.6 5:08 24.4 50.8 26.0 14.0 1.4 289.1 30.6 0.0 6.8
27-06-2021 178 32.7 14:58 13.3 4:12 23.8 80.8 41.9 21.3 1.0 272.8 30.1 0.0 6.2
26-06-2021 177 30.0 13:02 13.8 5:12 22.1 94.8 51.0 23.2 0.8 133.7 29.9 0.0 5.7
25-06-2021 176 27.9 12:32 13.9 5:52 20.6 98.5 64.3 38.2 0.9 138.0 29.6 0.0 5.5
24-06-2021 175 27.1 12:14 11.5 5:06 20.0 87.1 56.5 36.5 0.9 116.9 29.8 0.0 5.4
23-06-2021 174 26.8 12:32 13.1 5:04 20.2 74.3 46.1 25.9 1.0 112.4 30.5 0.0 5.6
22-06-2021 173 27.9 15:08 12.1 4:58 20.0 78.0 47.4 26.2 1.4 285.9 30.6 0.0 6.0
21-06-2021 172 27.2 14:16 13.9 3:46 19.7 79.3 48.1 22.7 1.6 288.6 31.0 0.0 6.2
20-06-2021 171 26.3 15:08 11.8 3:06 18.3 85.2 58.8 26.0 1.4 289.2 28.5 0.0 5.5
19-06-2021 170 21.8 15:14 13.5 22:24 16.6 79.8 63.1 46.4 0.9 266.9 10.9 0.0 2.6
18-06-2021 169 24.9 13:06 15.2 1:54 19.3 91.4 58.0 33.3 1.1 114.2 23.4 0.0 4.6
17-06-2021 168 25.2 14:14 13.7 5:08 18.6 99.9 71.1 39.5 0.8 259.3 21.3 0.0 4.1
16-06-2021 167 28.6 12:10 15.4 22:28 21.1 98.0 59.6 34.5 1.0 116.8 23.7 8.8 4.9
15-06-2021 166 31.4 12:54 17.4 2:40 23.1 73.5 47.9 29.4 0.6 142.1 24.6 0.0 5.0
14-06-2021 165 31.1 14:02 15.0 3:10 22.9 98.7 57.2 30.7 0.5 158.8 27.1 0.0 5.2
13-06-2021 164 28.5 14:08 16.1 5:44 22.7 87.5 52.4 30.3 0.8 134.8 28.5 0.0 5.5
12-06-2021 163 28.9 15:48 14.1 3:36 21.6 97.2 55.1 35.0 0.9 110.1 27.2 0.0 5.3
11-06-2021 162 30.3 13:00 12.9 5:50 22.2 91.8 52.1 28.1 0.9 118.5 28.0 0.0 5.5
10-06-2021 161 31.5 13:44 13.6 4:38 23.5 81.3 38.8 15.3 0.8 120.7 29.8 0.0 5.8
09-06-2021 160 32.4 13:54 13.6 5:44 23.3 94.4 45.3 17.7 0.7 139.8 28.0 0.0 5.6
08-06-2021 159 30.6 14:44 13.5 4:46 22.1 95.5 53.9 23.9 0.6 152.9 28.9 0.0 5.4
07-06-2021 158 28.3 14:08 11.5 4:48 21.2 96.5 54.5 33.2 0.7 125.4 30.1 0.0 5.5
06-06-2021 157 27.8 13:10 12.2 4:46 20.3 85.3 52.1 33.7 1.1 90.2 29.6 0.0 5.6
05-06-2021 156 23.0 13:26 14.3 23:58 17.4 100.0 81.8 49.3 0.9 130.5 16.4 7.2 3.2
04-06-2021 155 26.0 12:40 14.5 5:06 18.7 100.0 79.8 41.5 0.8 120.4 22.1 0.0 4.2
03-06-2021 154 26.8 13:00 11.1 5:36 18.0 100.0 79.4 40.9 0.9 122.6 28.4 0.0 5.0
02-06-2021 153 26.4 14:58 9.6 5:22 18.8 92.5 54.7 13.9 0.8 127.2 29.8 0.0 5.2
01-06-2021 152 26.6 16:14 13.9 5:06 20.2 85.4 52.5 26.5 1.3 116.6 28.9 0.0 5.6
31-05-2021 151 27.4 16:22 15.0 4:22 21.0 91.0 59.1 33.3 1.1 94.3 14.2 0.2 3.6
30-05-2021 150 25.8 13:10 14.1 4:52 19.3 100.0 73.5 43.4 0.8 117.7 18.5 0.0 3.7
29-05-2021 149 26.0 14:26 11.7 3:04 18.6 100.0 75.2 44.7 0.6 151.6 28.4 0.0 4.9
28-05-2021 148 22.4 14:16 11.9 00:06 15.7 100.0 84.6 58.3 0.6 133.4 19.7 0.0 3.4
27-05-2021 147 18.2 11:00 11.9 23:46 13.6 100.0 93.3 66.7 0.4 156.0 5.5 19.6 1.3
26-05-2021 146 22.8 12:32 9.6 4:56 16.0 100.0 75.1 41.9 0.9 142.2 26.4 0.0 4.4
25-05-2021 145 24.8 14:58 8.3 4:50 17.1 97.0 60.2 31.7 0.7 133.8 28.5 0.0 4.8
24-05-2021 144 24.6 15:42 10.3 3:44 16.6 91.3 48.6 21.3 0.9 290.3 29.2 0.0 5.0
23-05-2021 143 18.3 2:50 9.1 23:00 13.2 100.0 70.1 25.1 0.7 12.6 2.9 19.6 1.5
22-05-2021 142 31.3 13:32 14.5 4:26 22.2 57.9 31.5 14.2 0.9 277.5 23.6 0.0 5.2
21-05-2021 141 30.1 15:44 10.8 3:26 21.3 100.0 53.2 18.9 0.9 267.4 27.2 0.0 5.3
20-05-2021 140 25.0 14:44 12.5 5:02 17.3 100.0 79.2 48.4 1.1 106.7 22.2 0.0 4.1
19-05-2021 139 28.9 11:56 13.9 --:-- 21.1 93.0 44.5 22.8 0.8 126.3 29.3 0.0 5.4
18-05-2021 138 30.7 13:44 11.9 2:58 21.4 91.7 45.2 8.4 1.0 273.7 29.8 0.0 5.9
17-05-2021 137 30.3 13:06 13.9 23:00 21.2 81.6 43.1 12.1 0.8 125.9 29.1 0.0 5.5
16-05-2021 136 31.9 14:42 15.2 4:56 23.5 49.5 29.8 12.4 1.4 301.4 29.6 0.0 6.6
15-05-2021 135 30.6 15:54 10.1 5:50 21.6 80.0 32.5 12.4 1.1 284.6 30.0 0.0 5.9
14-05-2021 134 27.0 15:00 12.9 5:06 19.4 72.3 39.4 12.2 1.4 310.0 30.1 0.0 5.9
13-05-2021 133 25.6 14:56 10.8 5:04 18.1 85.6 48.4 28.4 1.4 304.7 29.2 0.0 5.4
12-05-2021 132 23.7 14:14 6.6 5:40 15.8 82.8 50.8 28.9 1.4 293.7 29.2 0.0 5.1
11-05-2021 131 19.8 15:14 8.5 4:36 13.4 79.9 47.6 19.2 1.8 295.0 29.6 0.0 5.0
10-05-2021 130 18.8 11:58 9.5 4:34 13.3 86.5 61.2 31.9 1.5 297.3 24.1 0.0 4.1
09-05-2021 129 21.1 16:14 12.1 --:-- 16.1 96.9 67.2 31.9 1.4 97.6 12.3 4.6 3.0
08-05-2021 128 27.9 14:46 8.3 5:22 19.5 98.4 49.5 22.0 1.0 121.6 26.6 2.8 5.0
07-05-2021 127 26.9 14:08 11.3 5:34 19.4 70.7 43.1 18.9 0.9 89.8 28.8 0.0 5.2
06-05-2021 126 27.2 15:30 8.0 5:30 18.9 100.0 51.3 19.1 1.0 300.7 28.5 0.0 5.1
05-05-2021 125 24.9 13:16 8.0 4:50 16.2 100.0 65.0 35.5 0.7 131.1 25.9 0.0 4.3
04-05-2021 124 23.1 13:34 6.0 5:26 13.4 100.0 81.0 39.0 0.7 149.6 27.0 0.0 4.1
03-05-2021 123 15.7 11:08 6.5 5:32 11.3 100.0 78.1 43.7 0.5 41.5 8.3 2.4 1.7
02-05-2021 122 20.5 13:20 5.0 4:50 12.3 91.2 58.8 24.9 0.9 101.3 29.0 0.0 4.3
01-05-2021 121 18.7 14:10 7.9 6:06 12.6 85.2 55.1 30.5 1.3 295.2 26.2 0.0 4.1
30-04-2021 120 17.0 12:50 5.9 5:16 11.8 98.9 67.9 44.5 0.8 303.6 15.1 0.0 2.5
29-04-2021 119 18.1 12:46 8.6 23:46 13.1 91.8 64.9 46.4 1.0 311.0 17.9 0.0 3.0
28-04-2021 118 19.3 10:52 10.2 23:30 13.8 96.1 77.2 55.4 0.9 302.6 13.4 3.0 2.5
27-04-2021 117 14.4 16:02 8.4 2:10 11.4 100.0 96.1 81.6 0.7 78.8 5.3 16.8 1.2
26-04-2021 116 19.3 15:12 9.7 6:06 13.8 100.0 77.0 47.6 0.7 84.4 13.8 3.6 2.5
25-04-2021 115 19.9 16:44 10.9 5:42 13.9 100.0 85.5 56.5 0.8 271.4 9.4 5.0 2.0
24-04-2021 114 22.3 14:44 10.9 1:06 15.0 100.0 67.0 46.3 0.9 284.6 17.0 6.2 3.1
23-04-2021 113 20.6 13:54 8.1 5:24 13.9 100.0 74.4 47.4 0.7 123.0 21.5 0.0 3.3
22-04-2021 112 21.3 15:10 10.3 5:12 13.9 100.0 72.8 34.0 0.7 246.4 20.3 0.2 3.3
21-04-2021 111 20.1 12:22 9.8 5:10 14.3 89.7 61.9 31.5 1.1 291.3 18.8 0.2 3.4
20-04-2021 110 22.0 13:32 7.9 5:24 14.9 94.1 58.9 34.9 0.8 305.2 23.3 0.0 3.7
19-04-2021 109 21.9 15:58 6.8 6:24 13.8 100.0 65.1 26.7 0.6 308.2 20.1 0.0 3.2
18-04-2021 108 21.8 16:04 5.8 5:18 13.0 100.0 57.5 20.4 0.9 334.4 26.2 0.0 4.0
17-04-2021 107 19.1 14:22 6.2 1:54 12.5 100.0 69.9 37.7 1.0 296.9 21.5 0.0 3.3
16-04-2021 106 14.7 12:38 7.1 23:36 9.9 100.0 94.8 68.2 0.9 142.9 9.0 9.2 1.6
15-04-2021 105 13.2 14:32 9.2 23:52 10.5 100.0 100.0 96.4 0.5 195.2 5.1 11.6 1.0
14-04-2021 104 12.9 10:18 9.4 20:36 11.0 100.0 93.5 76.8 0.6 123.1 4.4 6.4 1.0
13-04-2021 103 20.2 14:58 8.9 6:16 13.8 99.4 74.9 46.1 1.0 125.3 23.3 0.0 3.5
12-04-2021 102 20.7 13:12 7.6 5:22 13.5 100.0 74.0 42.5 0.8 113.4 22.0 0.0 3.3
11-04-2021 101 22.0 14:00 4.6 5:56 13.3 100.0 71.3 36.3 0.7 305.2 21.3 0.0 3.3
10-04-2021 100 18.9 14:20 9.6 22:46 12.8 100.0 82.0 47.0 0.9 113.3 18.1 0.0 2.8
09-04-2021 99 20.1 13:34 7.8 6:22 11.7 100.0 85.1 53.7 1.1 114.3 15.6 0.2 2.6
08-04-2021 98 17.4 16:04 8.3 22:46 11.7 100.0 80.9 55.9 0.9 138.4 15.3 0.2 2.4
07-04-2021 97 22.5 10:58 9.0 6:12 14.9 89.5 58.4 26.1 0.9 123.2 23.3 0.0 3.8
06-04-2021 96 24.5 14:24 6.8 2:08 15.4 100.0 56.5 24.6 0.6 99.3 21.8 0.0 3.5
05-04-2021 95 18.7 14:04 8.0 23:40 12.3 100.0 80.8 53.6 0.7 131.6 16.6 0.0 2.5
04-04-2021 94 19.5 13:10 7.1 5:44 12.6 92.9 69.5 41.9 0.7 108.8 20.1 0.0 3.0
03-04-2021 93 21.4 14:00 7.8 6:44 13.9 90.5 60.4 29.0 1.2 306.1 22.8 0.0 3.7
02-04-2021 92 20.3 13:26 9.3 2:28 14.4 88.9 58.8 33.9 1.4 292.5 23.5 0.0 3.8
01-04-2021 91 22.0 16:00 11.3 21:06 16.2 88.5 50.6 24.0 1.0 90.9 19.3 0.0 3.4
31-03-2021 90 24.2 13:32 8.0 6:04 17.1 66.1 38.8 26.0 0.9 92.1 21.9 0.0 3.7
30-03-2021 89 23.3 11:22 12.1 7:00 18.3 57.4 30.2 19.2 1.5 84.9 12.0 0.0 3.5
29-03-2021 88 21.3 12:10 9.9 00:12 15.7 84.2 48.2 35.5 0.8 86.5 18.3 0.0 3.0
28-03-2021 87 16.7 10:38 7.3 3:08 11.9 96.3 75.7 51.5 0.9 115.1 20.2 0.0 2.8
27-03-2021 86 21.4 13:42 5.7 6:54 13.7 91.3 54.0 24.1 0.6 103.2 19.9 0.0 3.0
26-03-2021 85 22.6 15:00 4.4 5:40 13.6 98.2 51.7 14.2 0.6 304.3 17.6 0.0 2.8
25-03-2021 84 21.4 14:54 5.0 6:48 13.1 89.1 55.7 24.1 0.6 149.3 23.0 0.0 3.2
24-03-2021 83 22.3 14:58 6.4 6:46 13.2 82.5 50.5 16.4 0.7 202.1 23.2 0.0 3.3
23-03-2021 82 20.5 14:56 3.0 6:10 12.3 77.8 42.7 18.6 0.9 300.8 23.0 0.0 3.3
22-03-2021 81 18.3 14:44 4.8 23:40 11.0 67.8 40.2 20.2 1.3 301.0 22.3 0.0 3.4
21-03-2021 80 14.2 14:12 -0.7 6:22 6.5 96.0 62.1 28.7 0.9 354.6 20.1 0.0 2.5
20-03-2021 79 11.6 12:20 0.8 23:36 5.5 93.3 68.2 36.2 1.0 316.6 13.6 0.2 1.9
19-03-2021 78 14.5 13:00 3.1 6:12 8.7 77.6 53.5 36.6 1.2 306.4 21.5 0.8 2.8
18-03-2021 77 19.3 14:24 2.1 5:54 9.9 100.0 71.8 25.5 0.7 144.8 19.4 0.0 2.6
17-03-2021 76 20.5 15:16 2.4 6:28 11.0 100.0 67.4 27.2 0.5 144.5 19.7 0.2 2.6
16-03-2021 75 17.9 13:36 2.4 6:36 10.2 100.0 81.1 44.4 0.7 136.8 17.9 0.0 2.4
15-03-2021 74 19.7 13:58 2.3 6:02 10.2 100.0 71.9 33.7 0.5 128.5 18.9 0.0 2.4
14-03-2021 73 19.1 14:44 5.1 6:28 11.1 93.0 65.4 43.7 0.6 100.5 17.5 0.0 2.3
13-03-2021 72 18.8 16:36 5.2 3:48 11.7 100.0 72.4 39.3 0.7 281.0 14.1 0.0 2.1
12-03-2021 71 19.9 14:28 7.3 4:20 13.0 90.9 65.4 41.9 1.2 324.4 20.2 0.0 2.9
11-03-2021 70 18.9 15:18 3.2 7:08 11.2 100.0 71.7 36.2 1.0 303.1 17.8 0.0 2.5
10-03-2021 69 16.1 15:40 2.5 3:30 8.7 100.0 86.9 43.8 0.9 285.3 17.7 0.2 2.2
09-03-2021 68 13.4 13:58 2.0 1:44 6.9 100.0 91.4 58.8 0.4 98.6 12.5 9.0 1.5
08-03-2021 67 14.7 11:12 2.5 --:-- 8.0 100.0 88.4 57.7 0.8 322.6 8.9 12.0 1.4
07-03-2021 66 15.9 13:30 7.6 7:00 10.4 100.0 84.1 57.1 0.7 307.4 10.4 0.6 1.6
06-03-2021 65 15.3 15:32 5.5 4:56 9.4 100.0 89.4 61.5 0.4 344.6 5.4 1.8 1.1
05-03-2021 64 16.3 14:04 4.6 7:16 9.5 100.0 81.7 51.5 0.7 111.9 11.9 0.0 1.7
04-03-2021 63 14.3 14:18 3.0 7:34 9.4 100.0 81.6 50.6 0.7 129.5 13.7 0.0 1.7
03-03-2021 62 15.9 13:46 6.2 6:42 10.7 100.0 83.5 58.2 0.6 126.0 10.1 0.0 1.5
02-03-2021 61 15.3 13:02 5.7 6:02 9.8 100.0 86.3 56.9 0.7 1.8 9.9 0.4 1.5
01-03-2021 60 15.2 12:58 4.6 7:28 9.4 100.0 86.8 59.4 0.5 40.0 8.8 2.8 1.3
28-02-2021 59 16.6 14:40 1.8 6:44 8.9 100.0 82.0 50.1 0.5 174.2 15.4 0.2 1.8
27-02-2021 58 14.1 15:14 5.8 2:12 8.7 100.0 87.8 59.0 0.4 153.6 9.8 0.0 1.3
26-02-2021 57 18.0 14:36 5.2 6:50 10.9 98.9 72.7 48.2 0.6 176.7 17.4 0.0 2.0
25-02-2021 56 17.4 13:30 8.3 --:-- 12.4 78.1 57.1 43.8 1.1 59.5 14.7 0.0 2.2
24-02-2021 55 17.3 13:50 2.1 6:58 9.5 100.0 72.2 40.1 1.0 84.6 15.9 0.0 2.1
23-02-2021 54 15.2 13:50 1.2 7:16 7.8 100.0 69.1 36.5 0.7 102.8 16.6 0.0 1.8
22-02-2021 53 12.1 14:02 3.5 7:14 7.2 97.0 65.0 39.5 1.3 319.0 16.4 1.8 1.9
21-02-2021 52 13.6 11:46 4.5 14:48 9.1 100.0 70.6 36.1 1.0 52.0 3.9 13.2 1.3
20-02-2021 51 20.3 13:30 9.2 6:52 13.4 80.4 47.6 25.9 1.2 99.5 14.8 0.0 2.5
19-02-2021 50 20.3 12:42 1.3 7:12 11.2 100.0 60.3 23.0 0.8 99.3 16.1 0.0 2.2
18-02-2021 49 19.5 14:38 2.3 5:22 11.0 91.2 55.6 25.7 0.9 329.9 15.1 0.0 2.1
17-02-2021 48 21.8 14:06 1.7 6:16 10.6 100.0 63.0 23.8 0.5 104.4 14.2 0.0 1.8
16-02-2021 47 20.3 15:04 4.4 23:30 11.0 100.0 64.7 33.7 0.8 123.2 15.1 0.0 2.0
15-02-2021 46 15.0 14:52 6.2 7:48 9.8 89.6 69.1 52.5 1.3 91.2 15.9 0.0 1.9
14-02-2021 45 17.8 13:10 0.8 7:24 10.0 95.1 63.4 32.2 0.8 89.1 15.0 0.0 1.8
13-02-2021 44 18.6 12:14 4.0 6:50 10.8 91.0 62.7 27.2 1.1 20.2 13.7 0.0 2.1
12-02-2021 43 17.0 13:38 7.5 23:58 12.0 100.0 74.0 39.5 1.6 310.9 12.9 0.0 2.0
11-02-2021 42 19.7 14:58 8.4 7:18 12.9 100.0 85.5 48.4 0.9 324.5 12.0 0.4 1.7
10-02-2021 41 15.2 13:14 8.6 4:48 11.5 98.1 87.9 72.6 1.3 351.4 5.4 6.4 1.1
09-02-2021 40 13.4 15:18 8.3 2:16 10.8 85.8 66.8 56.6 1.0 52.3 4.1 0.2 1.1
08-02-2021 39 12.5 13:42 7.4 --:-- 9.4 99.9 72.8 51.6 1.3 17.0 7.3 4.6 1.3
07-02-2021 38 9.7 15:32 5.5 6:54 7.1 94.6 77.6 62.2 1.2 325.4 4.3 0.4 1.0
06-02-2021 37 13.1 11:52 7.1 3:16 9.5 93.4 67.0 43.0 1.0 333.8 8.2 0.8 1.3
05-02-2021 36 18.8 13:26 8.7 23:00 14.1 98.3 49.9 24.1 1.3 97.2 10.3 1.4 2.0
04-02-2021 35 21.1 12:20 10.2 1:06 16.0 61.4 38.8 28.0 1.2 89.3 12.8 0.0 2.2
03-02-2021 34 15.7 15:54 3.5 7:02 9.1 100.0 82.2 41.6 0.6 39.9 8.4 0.0 1.2
02-02-2021 33 23.0 14:14 4.5 7:42 11.7 97.0 70.9 13.8 0.8 47.4 13.6 0.0 2.0
01-02-2021 32 17.3 13:52 8.3 23:32 12.2 100.0 75.4 50.0 1.8 336.9 13.5 2.8 1.8
31-01-2021 31 13.9 12:08 6.8 6:56 9.7 100.0 76.3 61.3 1.6 334.6 9.1 2.6 1.3
30-01-2021 30 14.9 14:34 4.8 5:34 10.3 100.0 74.7 52.0 1.7 328.0 11.7 0.0 1.5
29-01-2021 29 23.7 14:28 6.5 1:36 14.6 91.8 55.9 25.3 1.0 354.2 13.7 0.0 2.1
28-01-2021 28 23.4 14:28 7.7 6:24 13.8 100.0 75.8 35.5 0.4 333.7 11.8 0.2 1.4
27-01-2021 27 19.7 14:22 9.7 22:58 14.0 100.0 83.8 59.8 1.3 334.9 12.1 0.0 1.6
26-01-2021 26 17.3 15:02 9.9 6:28 12.4 100.0 90.5 68.8 1.3 319.6 8.9 8.0 1.2
25-01-2021 25 13.4 13:22 8.2 5:12 11.0 100.0 85.1 56.4 1.4 324.0 5.2 8.0 1.1
24-01-2021 24 14.5 12:16 9.2 21:00 11.4 98.5 78.8 52.1 1.7 323.7 8.3 4.4 1.4
23-01-2021 23 12.8 13:34 6.2 5:54 9.0 90.1 75.3 54.8 1.5 339.5 8.9 0.6 1.3
22-01-2021 22 13.9 11:34 6.5 19:16 10.5 90.3 69.4 40.9 1.6 332.3 11.5 3.2 1.6
21-01-2021 21 14.3 15:04 7.6 23:58 10.4 86.5 71.7 59.4 1.1 15.5 6.8 0.2 1.1
20-01-2021 20 10.6 10:14 1.1 00:02 8.3 100.0 71.2 33.5 1.0 63.8 1.7 3.6 1.0
19-01-2021 19 15.3 12:58 -2.0 7:40 5.7 100.0 71.0 28.6 0.6 55.7 12.3 0.2 1.1
18-01-2021 18 16.5 12:38 -0.3 3:20 7.2 92.9 61.6 28.0 0.5 115.3 12.6 0.0 1.1
17-01-2021 17 18.1 13:28 -3.0 6:18 6.8 100.0 65.6 23.1 0.5 304.6 11.6 0.0 1.1
16-01-2021 16 17.3 14:44 -0.3 --:-- 7.1 100.0 57.4 19.4 0.8 37.4 12.4 0.0 1.4
15-01-2021 15 15.6 13:34 0.5 6:40 7.0 87.9 57.7 25.5 1.0 337.3 12.5 0.0 1.4
14-01-2021 14 12.0 12:14 2.2 4:54 6.6 79.2 54.2 32.4 1.8 313.7 12.1 0.0 1.6
13-01-2021 13 13.5 15:14 -1.9 7:42 5.4 96.7 63.9 35.0 0.7 340.9 12.1 0.0 1.0
12-01-2021 12 10.7 15:32 -1.2 6:14 3.7 100.0 79.2 42.6 0.9 3.2 11.8 0.2 1.0
11-01-2021 11 8.8 15:14 -0.9 1:32 3.4 100.0 86.5 60.3 0.9 335.2 10.9 0.0 0.8
10-01-2021 10 5.9 11:28 -0.9 22:40 2.0 100.0 93.9 71.5 0.7 84.8 5.1 3.8 0.6
09-01-2021 9 9.6 13:30 1.9 23:46 6.3 100.0 80.5 41.0 1.5 112.4 10.6 2.4 1.1
08-01-2021 8 10.0 18:36 3.9 5:00 6.3 100.0 100.0 100.0 1.1 100.0 1.5 21.8 0.4
07-01-2021 7 5.2 14:54 1.7 1:18 3.6 100.0 100.0 100.0 0.4 227.3 1.3 13.4 0.4
06-01-2021 6 9.4 12:42 0.9 5:42 4.2 100.0 85.8 56.4 0.6 223.3 7.8 5.4 0.7
05-01-2021 5 10.2 12:32 -0.3 7:46 4.7 88.0 69.7 38.9 0.8 65.1 8.1 0.0 0.9
04-01-2021 4 8.1 14:34 -1.6 4:40 3.7 84.2 63.2 44.7 1.5 309.9 11.5 0.0 1.0
03-01-2021 3 8.3 14:30 -1.3 7:04 2.9 80.7 54.5 37.8 1.7 313.2 11.7 0.0 1.2
02-01-2021 2 6.7 14:14 0.4 23:34 2.9 91.0 70.8 48.4 1.3 315.2 10.9 0.0 0.9
01-01-2021 1 7.5 14:00 1.3 22:26 4.5 96.7 77.2 56.1 1.5 331.2 6.5 7.0 0.9
31-12-2020 366 9.5 13:16 -2.0 7:24 3.9 99.1 72.8 38.6 1.1 324.3 11.2 0.2 0.9
30-12-2020 365 9.8 12:02 0.5 --:-- 4.6 91.2 68.6 33.2 1.5 306.3 11.3 0.0 1.2
29-12-2020 364 8.8 13:16 2.3 5:34 4.9 96.5 77.6 62.2 1.2 319.6 6.2 3.6 0.8
28-12-2020 363 9.4 12:46 4.1 23:48 6.5 95.5 77.9 27.7 1.4 356.8 1.9 4.2 1.2
27-12-2020 362 13.9 13:30 -4.5 7:04 3.5 100.0 64.0 8.1 0.8 24.5 11.3 0.0 1.1
26-12-2020 361 9.6 14:42 -1.8 22:10 3.2 91.4 60.1 28.6 0.8 330.0 11.4 0.0 0.9
25-12-2020 360 14.2 14:02 1.5 4:10 7.0 100.0 81.5 55.3 0.7 341.8 8.9 0.2 0.8
24-12-2020 359 15.5 14:40 4.2 7:38 8.8 100.0 85.1 51.1 0.7 328.3 10.3 0.0 0.9
23-12-2020 358 19.3 13:08 2.8 7:58 9.8 100.0 78.8 38.6 0.7 300.8 10.6 0.0 1.1
22-12-2020 357 18.6 13:24 2.1 6:46 9.4 100.0 78.6 43.5 0.5 97.4 10.3 0.0 0.9
21-12-2020 356 16.9 14:24 2.5 6:44 8.9 100.0 85.8 55.3 0.6 322.7 9.8 0.2 0.9
20-12-2020 355 15.5 12:56 6.6 23:06 10.2 100.0 89.4 66.2 1.1 315.0 9.7 0.2 0.9
19-12-2020 354 14.5 12:36 0.9 6:12 7.4 100.0 94.5 70.3 0.5 340.6 7.3 0.4 0.7
18-12-2020 353 16.1 13:38 2.9 7:30 8.6 100.0 92.2 64.3 0.4 48.2 9.8 0.2 0.7
17-12-2020 352 14.7 13:40 7.4 22:16 10.2 100.0 86.3 64.8 0.5 97.3 6.5 0.6 0.7
16-12-2020 351 15.1 11:54 1.9 6:24 9.5 100.0 72.2 52.7 0.9 78.7 8.1 0.0 0.9
15-12-2020 350 14.5 12:50 2.7 23:58 10.3 100.0 79.2 47.6 1.2 320.0 11.0 0.0 1.1
14-12-2020 349 16.9 11:30 7.4 2:48 11.6 99.0 79.0 55.8 0.8 333.3 9.1 0.0 1.0
13-12-2020 348 19.3 14:42 7.1 7:42 11.8 100.0 82.4 47.9 0.7 28.2 9.8 0.0 1.1
12-12-2020 347 16.7 12:46 11.7 8:04 13.3 100.0 82.1 59.8 1.8 320.3 6.7 4.4 1.2
11-12-2020 346 13.8 13:08 12.0 19:12 12.6 100.0 99.8 96.4 1.6 308.7 1.2 14.8 0.5
10-12-2020 345 15.6 7:50 8.2 6:02 11.0 100.0 85.9 66.2 1.3 349.4 3.9 7.4 0.9
09-12-2020 344 10.9 14:32 3.1 6:32 7.1 81.4 62.6 42.6 1.4 326.1 11.3 0.0 1.2
08-12-2020 343 10.8 12:04 6.1 23:38 8.1 86.8 74.3 61.8 1.7 315.6 2.5 4.4 1.0
07-12-2020 342 11.0 12:54 5.9 00:10 8.4 87.4 76.7 62.7 1.1 355.0 3.1 3.4 0.9
06-12-2020 341 7.9 14:32 2.6 1:26 5.0 81.5 65.4 50.1 1.3 319.5 8.5 0.0 1.0
05-12-2020 340 6.4 13:04 1.4 6:40 3.3 85.9 67.1 52.6 1.4 323.4 8.1 0.4 0.9
04-12-2020 339 12.1 11:56 2.3 23:56 6.8 87.6 75.4 62.0 1.4 336.0 5.0 6.4 1.0
03-12-2020 338 13.6 12:36 1.3 6:18 8.1 91.0 70.6 49.5 1.0 316.2 10.5 0.0 1.0
02-12-2020 337 15.5 13:28 4.6 23:54 11.1 84.9 54.9 30.5 1.3 321.6 11.5 0.0 1.4
01-12-2020 336 15.4 14:10 5.2 5:08 9.2 91.9 78.9 51.7 0.9 321.0 8.1 0.2 1.1
30-11-2020 335 17.7 14:32 2.5 3:46 9.3 93.9 76.5 42.5 0.5 314.7 10.9 0.0 1.0
29-11-2020 334 15.1 12:52 6.1 2:56 9.7 92.3 78.4 52.5 0.5 63.4 5.2 0.2 0.8
28-11-2020 333 12.1 19:34 5.8 2:48 8.6 87.6 71.0 49.2 0.9 338.9 5.7 0.0 1.0
27-11-2020 332 11.5 14:44 4.6 3:20 6.9 94.0 81.9 55.8 0.6 328.4 4.9 18.6 0.8
26-11-2020 331 13.5 00:10 5.2 23:52 8.8 92.2 79.9 46.9 1.1 70.5 1.3 32.4 1.1
25-11-2020 330 14.8 14:22 4.0 00:12 10.5 90.4 71.8 43.7 1.0 92.1 5.4 0.0 1.2
24-11-2020 329 17.9 14:20 3.4 7:44 9.4 90.6 64.7 34.6 0.7 107.9 11.8 0.0 1.2
23-11-2020 328 14.9 13:30 1.0 5:12 8.1 92.4 73.1 40.1 0.8 94.9 12.3 0.0 1.1
22-11-2020 327 15.7 14:10 2.5 23:36 9.4 90.6 69.5 45.6 0.8 92.9 12.6 0.0 1.2
21-11-2020 326 16.3 14:22 9.4 23:52 12.3 87.7 75.8 51.4 0.8 129.1 9.4 0.0 1.2
20-11-2020 325 21.4 13:36 7.4 7:30 12.4 95.2 79.8 36.6 0.7 131.3 11.5 0.2 1.4
19-11-2020 324 19.3 13:16 4.2 6:36 11.3 96.6 83.3 54.5 0.6 147.6 11.4 0.2 1.2
18-11-2020 323 20.7 13:28 6.4 6:18 12.2 95.6 83.1 48.2 0.6 127.2 10.2 0.2 1.3
17-11-2020 322 24.4 13:18 6.6 7:14 14.1 92.7 73.9 25.2 0.6 289.1 12.8 0.2 1.6
16-11-2020 321 23.7 14:32 11.2 00:32 17.4 85.3 54.3 32.2 1.1 331.3 10.8 0.0 1.9
15-11-2020 320 23.9 14:20 9.6 6:40 15.9 90.7 65.8 37.2 0.8 5.0 11.3 0.0 1.7
14-11-2020 319 16.9 11:26 11.9 7:10 14.0 93.6 80.3 59.4 0.6 46.3 4.6 0.6 1.0
13-11-2020 318 19.6 13:24 9.2 7:22 13.3 93.9 82.0 54.8 0.5 154.3 9.5 0.0 1.2
12-11-2020 317 17.6 14:14 4.7 3:42 11.1 93.0 78.5 47.1 0.7 100.9 10.5 0.2 1.3
11-11-2020 316 19.5 13:56 4.4 7:10 11.6 93.1 76.9 40.0 0.6 82.7 12.8 0.2 1.4
10-11-2020 315 21.0 13:46 7.5 6:44 12.5 91.6 75.8 42.3 0.5 352.5 13.4 0.0 1.4
09-11-2020 314 20.2 11:48 6.0 7:00 12.5 90.4 70.6 37.0 0.8 319.9 11.5 0.2 1.6
08-11-2020 313 20.3 12:22 4.7 6:50 11.5 90.6 73.0 44.6 0.8 86.3 13.2 0.0 1.6
07-11-2020 312 19.3 13:10 7.0 23:10 13.5 89.6 69.1 40.2 1.2 83.5 11.9 8.0 1.8
06-11-2020 311 24.8 12:26 10.4 00:58 18.2 82.1 45.2 22.7 1.4 57.8 11.2 3.6 2.5
05-11-2020 310 19.6 13:16 10.4 2:06 14.4 90.5 66.3 38.7 1.6 92.3 7.3 13.8 2.0
04-11-2020 309 17.7 13:28 9.8 1:12 13.1 88.8 70.7 47.2 0.8 104.1 7.2 0.0 1.4
03-11-2020 308 24.5 13:10 6.5 7:24 14.9 85.9 55.9 26.9 0.6 111.2 14.6 0.0 1.9
02-11-2020 307 25.9 13:54 6.4 6:46 15.2 86.7 53.2 24.9 0.4 198.6 15.2 0.0 1.7
01-11-2020 306 26.0 13:06 8.6 4:14 16.1 83.3 53.1 25.1 0.5 343.9 15.2 0.0 1.9
31-10-2020 305 26.1 13:14 7.9 7:08 15.9 86.7 57.7 23.7 0.5 169.9 15.1 0.0 1.9
30-10-2020 304 24.8 13:22 5.6 6:02 14.6 90.3 65.1 33.1 0.6 78.2 15.4 0.0 2.0
29-10-2020 303 23.8 13:08 5.3 5:56 14.0 89.6 62.3 33.6 0.5 183.0 15.6 0.0 1.8
28-10-2020 302 23.9 14:06 5.5 6:40 13.2 79.6 54.7 24.3 0.7 312.3 15.5 0.0 2.1
27-10-2020 301 17.3 13:08 3.8 5:34 10.6 83.8 54.4 25.4 1.5 322.4 16.1 0.0 2.3
26-10-2020 300 15.6 13:24 5.8 23:40 11.6 86.1 58.2 39.3 1.6 316.2 16.4 0.2 2.1
25-10-2020 299 22.2 11:34 7.4 6:48 13.6 89.0 62.8 20.3 1.2 346.0 15.9 0.0 2.6
24-10-2020 298 20.7 13:50 8.2 7:16 13.7 86.5 62.4 31.2 1.0 327.8 16.6 0.0 2.3
23-10-2020 297 19.7 12:54 9.0 6:08 13.7 92.5 66.9 41.5 0.8 331.8 14.3 0.2 1.9
22-10-2020 296 16.5 00:36 11.7 --:-- 13.7 92.2 83.3 57.8 0.9 82.6 2.3 16.4 1.1
21-10-2020 295 19.5 12:38 13.7 4:24 16.7 80.5 57.1 43.0 1.2 113.5 7.9 1.0 1.9
20-10-2020 294 26.6 14:50 14.5 1:20 19.6 64.3 38.9 21.2 1.4 118.5 12.8 0.0 3.2
19-10-2020 293 24.3 13:24 12.3 4:44 17.6 59.4 37.0 22.8 1.3 90.9 16.7 0.0 3.1
18-10-2020 292 22.3 13:36 2.9 7:04 13.0 89.7 58.7 30.7 0.8 106.1 17.5 0.0 2.3
17-10-2020 291 22.2 14:14 4.3 2:38 12.5 85.3 50.7 18.0 0.8 311.5 18.1 0.0 2.5
16-10-2020 290 20.2 13:00 5.1 7:04 12.9 74.0 44.3 23.3 0.7 63.9 16.8 0.0 2.2
15-10-2020 289 20.7 13:56 7.0 6:52 13.4 70.7 45.6 25.0 0.9 322.4 18.0 0.0 2.5
14-10-2020 288 21.2 14:04 10.8 23:56 16.3 54.5 39.9 23.9 1.4 307.9 18.3 0.0 3.1
13-10-2020 287 25.3 14:26 4.1 5:40 14.4 89.2 51.3 16.9 0.7 286.7 18.5 0.2 2.6
12-10-2020 286 23.4 14:56 6.4 6:10 13.4 88.7 52.5 11.6 0.7 313.4 18.8 0.0 2.6
11-10-2020 285 24.2 13:46 8.4 6:24 14.8 89.4 74.2 41.8 0.6 203.3 16.9 0.0 2.4
10-10-2020 284 26.7 11:06 9.5 5:38 16.9 88.4 66.8 26.7 0.6 150.1 16.2 0.0 2.6
09-10-2020 283 27.4 12:50 9.4 6:24 17.1 87.8 65.1 31.3 0.4 217.9 15.5 0.0 2.3
08-10-2020 282 28.0 13:32 9.2 6:44 18.2 83.4 51.2 21.2 0.6 114.7 19.5 0.0 2.9
07-10-2020 281 29.0 14:22 9.0 6:46 18.4 83.0 49.3 24.0 0.6 172.0 19.6 0.0 3.0
06-10-2020 280 25.7 15:10 6.4 5:12 15.4 84.0 55.0 28.0 0.7 292.5 18.9 0.0 2.8
05-10-2020 279 21.7 13:10 10.4 23:48 15.5 84.4 55.0 28.8 2.2 291.6 18.5 0.0 3.7
04-10-2020 278 22.1 14:10 8.5 5:50 15.1 70.4 48.6 34.7 1.9 285.1 19.6 0.0 3.6
03-10-2020 277 17.5 14:46 6.3 6:12 11.7 80.3 55.9 36.2 1.5 311.3 18.0 0.0 2.8
02-10-2020 276 21.2 12:02 10.2 23:56 15.4 86.9 64.0 47.6 1.6 313.5 9.5 3.0 2.3
01-10-2020 275 27.4 13:42 14.5 4:56 20.7 67.9 42.1 20.0 1.6 303.7 19.7 0.0 4.2
30-09-2020 274 28.2 14:30 10.5 5:06 18.9 87.1 53.4 20.8 0.7 287.8 15.0 0.0 2.9
29-09-2020 273 27.9 13:28 8.8 6:18 18.5 84.9 49.1 19.3 0.8 93.1 20.7 0.0 3.4
28-09-2020 272 27.3 14:10 8.2 3:46 17.4 82.2 50.4 28.0 0.7 113.8 21.0 0.0 3.3
27-09-2020 271 26.2 14:32 11.1 23:18 18.1 74.1 42.1 23.7 1.3 306.4 20.8 0.0 3.9
26-09-2020 270 25.5 15:12 10.2 5:46 18.0 66.4 37.2 18.9 1.2 311.8 21.2 0.0 3.8
25-09-2020 269 26.3 13:16 15.3 23:56 20.3 73.7 43.5 13.4 1.9 301.9 19.8 0.0 4.6
24-09-2020 268 29.6 14:36 17.6 3:28 22.5 69.5 49.1 30.8 1.2 300.6 17.9 0.0 4.0
23-09-2020 267 28.2 14:00 15.0 3:20 20.8 75.4 51.6 31.7 1.0 317.5 17.5 0.0 3.5
22-09-2020 266 29.0 14:40 13.7 6:32 21.5 73.8 43.0 21.0 0.9 316.8 19.4 0.0 3.7
21-09-2020 265 27.6 14:02 13.7 6:14 20.0 82.0 52.8 23.7 0.9 329.6 18.4 0.0 3.5
20-09-2020 264 26.9 13:18 12.9 6:06 19.1 88.0 60.3 29.1 1.2 314.5 20.5 0.0 3.9
19-09-2020 263 26.8 14:24 12.0 5:34 18.9 83.0 59.4 36.0 1.3 296.0 20.6 0.0 3.9
18-09-2020 262 22.5 14:10 15.3 2:22 18.4 89.5 69.4 43.6 1.8 111.0 7.6 20.8 2.5
17-09-2020 261 28.8 13:00 16.6 21:42 22.8 82.7 50.6 34.3 1.7 119.3 10.6 1.6 3.5
16-09-2020 260 27.4 11:14 13.7 5:38 20.8 89.4 66.3 36.3 0.9 125.0 16.6 0.0 3.3
15-09-2020 259 28.5 14:20 14.5 6:14 21.3 87.3 62.3 38.7 0.9 109.7 21.4 0.0 3.9
14-09-2020 258 28.4 11:28 16.7 5:48 21.8 82.9 51.8 30.9 1.1 88.5 11.6 0.0 3.2
13-09-2020 257 30.4 15:14 15.0 4:58 23.0 77.4 44.4 27.4 0.8 114.5 16.8 0.0 3.6
12-09-2020 256 31.5 13:56 12.9 6:06 22.9 81.9 44.1 21.9 0.7 242.4 21.9 0.0 4.1
11-09-2020 255 29.6 13:52 11.5 5:56 21.6 84.2 47.0 26.6 0.9 105.7 22.3 0.0 4.2
10-09-2020 254 30.7 13:50 12.7 5:20 21.4 86.7 53.4 23.0 0.9 141.3 23.0 0.0 4.4
09-09-2020 253 27.7 13:36 12.7 6:30 19.9 89.1 62.1 36.1 0.7 148.0 23.3 0.0 4.0
08-09-2020 252 25.3 12:26 17.3 23:56 20.4 80.9 65.5 43.6 1.2 132.5 20.9 0.0 4.0
07-09-2020 251 33.8 13:58 14.7 4:52 23.3 89.4 56.2 18.9 1.1 286.9 21.9 0.0 4.9
06-09-2020 250 27.3 14:32 16.3 1:34 20.8 89.2 69.4 43.7 1.0 116.9 23.6 0.0 4.3
05-09-2020 249 28.2 14:16 12.9 4:54 20.4 90.6 68.5 42.0 0.8 133.3 23.9 0.0 4.2
04-09-2020 248 29.6 12:48 11.5 6:26 20.5 88.8 59.6 21.8 1.0 122.9 24.4 0.0 4.6
03-09-2020 247 27.6 13:00 13.3 5:40 20.7 87.5 61.6 38.2 0.8 127.1 24.1 0.0 4.2
02-09-2020 246 26.4 11:46 10.7 5:18 18.9 88.5 65.7 39.3 0.9 122.6 24.6 0.0 4.2
01-09-2020 245 25.0 15:54 11.6 5:42 18.6 87.1 64.2 41.1 0.5 195.9 12.9 0.0 2.6
31-08-2020 244 27.0 13:44 11.8 4:46 19.6 86.6 60.6 36.4 0.8 114.0 25.0 0.0 4.3
30-08-2020 243 28.0 14:10 13.3 5:12 19.7 82.4 40.9 18.1 0.9 108.7 22.4 0.0 4.3
29-08-2020 242 27.6 12:22 16.7 5:18 22.4 46.3 28.8 14.0 1.9 300.8 25.8 0.0 5.8
28-08-2020 241 34.5 14:06 19.4 6:24 26.6 51.4 34.1 12.5 1.3 316.0 24.7 0.0 5.8
27-08-2020 240 36.0 13:30 17.4 5:54 26.8 70.4 36.7 19.9 0.8 132.7 24.4 0.0 5.2
26-08-2020 239 37.7 15:36 14.9 5:20 25.6 84.7 45.0 9.0 0.6 252.5 25.8 0.0 5.1
25-08-2020 238 33.8 15:58 17.6 6:24 25.4 89.6 57.0 24.8 0.9 125.3 25.8 0.0 5.3
24-08-2020 237 30.6 15:22 19.2 00:24 23.7 87.9 69.9 46.3 1.2 118.2 25.2 0.0 5.1
23-08-2020 236 32.0 14:12 17.3 1:46 25.1 87.4 49.8 30.8 0.8 133.6 25.7 0.0 5.1
22-08-2020 235 38.5 15:00 17.5 5:40 27.8 51.0 30.5 11.4 0.9 292.3 26.7 0.0 5.8
21-08-2020 234 38.2 14:34 17.7 5:54 27.7 55.0 25.9 8.9 0.8 284.0 26.1 0.0 5.6
20-08-2020 233 34.7 15:22 16.0 4:40 25.3 76.4 40.7 22.6 0.7 145.5 23.8 0.0 4.9
19-08-2020 232 33.1 13:30 14.6 4:26 24.4 76.7 42.2 22.6 0.8 130.2 25.8 0.0 5.2
18-08-2020 231 35.0 13:56 15.7 5:00 25.0 64.9 34.6 15.6 0.7 224.2 27.0 0.0 5.3
17-08-2020 230 33.1 14:54 16.3 6:12 25.0 49.6 30.0 16.5 1.4 295.4 27.3 0.0 6.2
16-08-2020 229 31.7 14:20 15.5 5:54 23.8 58.4 32.5 14.9 1.7 292.6 27.6 0.0 6.4
15-08-2020 228 32.7 14:38 16.4 5:52 24.3 54.3 33.6 16.8 1.2 301.1 27.4 0.0 5.9
14-08-2020 227 33.6 15:18 15.2 5:32 24.9 66.6 31.5 8.5 0.9 117.0 28.0 0.0 5.6
13-08-2020 226 33.2 15:16 13.9 6:08 24.2 81.6 37.6 10.1 0.8 102.5 28.1 0.0 5.5
12-08-2020 225 31.0 12:00 18.6 22:50 24.1 87.6 45.9 15.2 1.1 113.3 27.9 0.0 5.7
11-08-2020 224 32.3 12:10 19.8 23:22 25.4 75.0 50.7 30.3 1.4 115.0 24.9 0.0 5.8
10-08-2020 223 35.6 11:42 21.5 20:08 27.9 74.4 35.5 16.2 1.4 100.8 19.9 0.0 5.7
09-08-2020 222 36.7 15:02 19.0 3:34 28.8 75.8 29.5 14.1 1.0 104.1 26.8 0.0 6.0
08-08-2020 221 36.1 12:08 17.2 5:36 27.0 81.5 42.2 17.1 0.9 112.8 23.9 0.0 5.5
07-08-2020 220 34.0 14:38 19.2 5:08 26.3 81.3 50.4 31.0 0.9 132.9 26.8 0.0 5.7
06-08-2020 219 33.9 12:02 17.5 4:36 26.6 79.2 46.4 27.6 1.1 113.2 26.8 0.0 5.9
05-08-2020 218 33.2 14:26 19.8 4:40 26.0 88.3 51.9 27.8 1.0 109.5 27.6 0.0 5.9
04-08-2020 217 29.9 11:18 16.7 5:12 23.7 88.0 63.3 44.7 0.9 123.0 24.1 0.0 4.9
03-08-2020 216 34.4 13:56 19.5 23:50 26.9 68.3 32.7 19.6 1.5 298.5 26.7 0.0 6.5
02-08-2020 215 39.0 13:46 23.2 5:08 31.3 34.3 19.3 8.7 1.1 320.2 27.3 0.0 6.5
01-08-2020 214 40.8 14:44 21.2 2:28 31.2 77.9 29.4 11.4 1.2 303.5 25.5 0.0 6.8
31-07-2020 213 38.4 14:16 19.4 5:24 29.5 81.2 42.3 15.0 0.8 133.0 24.0 0.0 5.6
30-07-2020 212 36.2 14:56 21.7 6:20 28.4 83.3 47.4 27.6 1.3 120.4 27.7 0.0 6.6
29-07-2020 211 34.7 12:42 17.6 5:16 26.2 85.0 51.6 27.2 0.9 141.9 28.1 0.0 6.0
28-07-2020 210 36.2 11:24 19.8 5:24 27.7 84.7 42.9 14.2 0.8 152.2 29.0 0.0 6.2
27-07-2020 209 33.8 14:52 20.3 --:-- 28.2 86.2 45.4 25.2 1.2 119.5 25.2 0.0 5.9
26-07-2020 208 36.9 13:24 15.8 5:10 27.7 74.7 41.5 20.7 0.8 156.0 28.6 0.0 6.1
25-07-2020 207 34.8 15:40 17.0 6:14 27.3 69.7 34.6 18.6 0.9 131.9 29.2 0.0 6.1